Jack Brooks Regional Airport

Airport
ICAO code: 
KBPT
Summary
ICAO Region: 
NAM
Territory: 
Location: 
Beaumont/Port Arthur, Texas,
Coordinates: 
Aerial View: 
29° 57' 2.999" N, 94° 1' 14.498" W
Metar
Observation
KBPT 040653Z 17005KT 10SM CLR 18/18 A3005 RMK AO2 SLP176 T01830178
Station
Beaumont / Port Arthur, Southeast Texas Regional Airport
Date/Time
2021-12-04 06:53:00
Wind direction
170°
Wind speed
05 kts
Lowest cloud amount
n/a
Temperature
18.3°C
Dew point
17.8°C
Humidity
96%
Weather condition
n/a

Description

Jack Brooks Regional Airport, formerly Southeast Texas Regional Airport, is a public use airport located near Port Arthur, 14 km southeast of the central business district of Beaumont, Texas.

Climatology

Humid “subtropical” climate (Köppen climate classification Cfa) - characterized by hot, humid summers and cool winters. Significant amounts of precipitation occur in all seasons in most areas. Winter rainfall (and sometimes snowfall) is associated with large storms that the westerlies steer from west to east. Most summer rainfall occurs during thunderstorms and occasional tropical storms (hurricanes).

Runways

Designator Length Width Surface Rops
16/34 1545 46 PEM Yes/Yes
12/30 2057 46 CON Yes/Yes
Airport map: 
Aerial View: 

SKYbrary Partners:

Safety knowledge contributed by: